sensor_id;sensor_type;location;lat;lon;timestamp;P1;durP1;ratioP1;P2;durP2;ratioP2
75684;SDS011;64298;46.050;38.164;2023-02-01T00:01:06;9.07;;;4.28;;
75684;SDS011;64298;46.050;38.164;2023-02-01T00:03:33;10.90;;;5.30;;
75684;SDS011;64298;46.050;38.164;2023-02-01T00:05:59;9.98;;;4.07;;
75684;SDS011;64298;46.050;38.164;2023-02-01T00:08:26;13.55;;;5.13;;
75684;SDS011;64298;46.050;38.164;2023-02-01T00:11:05;13.15;;;5.55;;
75684;SDS011;64298;46.050;38.164;2023-02-01T00:13:34;13.32;;;5.32;;
75684;SDS011;64298;46.050;38.164;2023-02-01T00:16:03;14.00;;;8.23;;
75684;SDS011;64298;46.050;38.164;2023-02-01T00:18:34;16.67;;;5.78;;
75684;SDS011;64298;46.050;38.164;2023-02-01T00:21:01;13.10;;;6.45;;
75684;SDS011;64298;46.050;38.164;2023-02-01T00:23:27;13.80;;;6.07;;
75684;SDS011;64298;46.050;38.164;2023-02-01T00:25:53;12.20;;;5.10;;
75684;SDS011;64298;46.050;38.164;2023-02-01T00:28:19;14.00;;;4.93;;
75684;SDS011;64298;46.050;38.164;2023-02-01T00:30:45;15.75;;;7.72;;
75684;SDS011;64298;46.050;38.164;2023-02-01T00:33:11;14.60;;;6.57;;
75684;SDS011;64298;46.050;38.164;2023-02-01T00:35:37;12.73;;;6.55;;
75684;SDS011;64298;46.050;38.164;2023-02-01T00:38:03;11.23;;;4.97;;
75684;SDS011;64298;46.050;38.164;2023-02-01T00:40:29;11.95;;;5.88;;
75684;SDS011;64298;46.050;38.164;2023-02-01T00:42:55;12.85;;;5.82;;
75684;SDS011;64298;46.050;38.164;2023-02-01T00:45:22;8.57;;;4.35;;
75684;SDS011;64298;46.050;38.164;2023-02-01T00:47:48;11.38;;;6.47;;
75684;SDS011;64298;46.050;38.164;2023-02-01T00:50:14;8.73;;;3.25;;
75684;SDS011;64298;46.050;38.164;2023-02-01T00:52:41;13.30;;;4.20;;
75684;SDS011;64298;46.050;38.164;2023-02-01T00:55:06;12.05;;;5.78;;
75684;SDS011;64298;46.050;38.164;2023-02-01T00:57:33;11.32;;;6.47;;
75684;SDS011;64298;46.050;38.164;2023-02-01T00:59:59;12.57;;;5.50;;
75684;SDS011;64298;46.050;38.164;2023-02-01T01:02:25;12.65;;;6.13;;
75684;SDS011;64298;46.050;38.164;2023-02-01T01:04:52;11.38;;;5.40;;
75684;SDS011;64298;46.050;38.164;2023-02-01T01:07:18;11.00;;;4.47;;
75684;SDS011;64298;46.050;38.164;2023-02-01T01:09:44;13.35;;;4.93;;
75684;SDS011;64298;46.050;38.164;2023-02-01T01:12:10;10.48;;;4.47;;
75684;SDS011;64298;46.050;38.164;2023-02-01T01:14:36;10.77;;;5.25;;
75684;SDS011;64298;46.050;38.164;2023-02-01T01:17:20;11.27;;;6.22;;
75684;SDS011;64298;46.050;38.164;2023-02-01T01:19:46;9.57;;;4.38;;
75684;SDS011;64298;46.050;38.164;2023-02-01T01:22:12;9.98;;;4.00;;
75684;SDS011;64298;46.050;38.164;2023-02-01T01:24:38;10.05;;;4.38;;
75684;SDS011;64298;46.050;38.164;2023-02-01T01:27:04;8.75;;;4.15;;
75684;SDS011;64298;46.050;38.164;2023-02-01T01:29:30;10.80;;;5.25;;
75684;SDS011;64298;46.050;38.164;2023-02-01T01:31:56;9.93;;;4.30;;
75684;SDS011;64298;46.050;38.164;2023-02-01T01:34:22;10.50;;;5.78;;
75684;SDS011;64298;46.050;38.164;2023-02-01T01:36:48;10.07;;;4.28;;
75684;SDS011;64298;46.050;38.164;2023-02-01T01:39:14;10.45;;;6.05;;
75684;SDS011;64298;46.050;38.164;2023-02-01T01:41:40;12.77;;;6.18;;
75684;SDS011;64298;46.050;38.164;2023-02-01T01:47:29;13.32;;;5.82;;
75684;SDS011;64298;46.050;38.164;2023-02-01T01:50:03;13.70;;;6.32;;
75684;SDS011;64298;46.050;38.164;2023-02-01T01:52:33;13.07;;;6.88;;
75684;SDS011;64298;46.050;38.164;2023-02-01T01:55:00;13.93;;;5.82;;
75684;SDS011;64298;46.050;38.164;2023-02-01T01:57:27;12.98;;;6.15;;
75684;SDS011;64298;46.050;38.164;2023-02-01T02:00:21;11.48;;;5.53;;
75684;SDS011;64298;46.050;38.164;2023-02-01T02:02:51;16.98;;;8.20;;
75684;SDS011;64298;46.050;38.164;2023-02-01T02:05:22;12.00;;;5.43;;
75684;SDS011;64298;46.050;38.164;2023-02-01T02:07:49;13.63;;;6.68;;
75684;SDS011;64298;46.050;38.164;2023-02-01T02:10:18;13.88;;;6.57;;
75684;SDS011;64298;46.050;38.164;2023-02-01T02:12:45;13.52;;;5.45;;
75684;SDS011;64298;46.050;38.164;2023-02-01T02:15:14;10.68;;;4.45;;
75684;SDS011;64298;46.050;38.164;2023-02-01T02:34:56;12.90;;;4.60;;
75684;SDS011;64298;46.050;38.164;2023-02-01T02:44:21;14.60;;;5.65;;
75684;SDS011;64298;46.050;38.164;2023-02-01T02:47:11;11.15;;;6.28;;
75684;SDS011;64298;46.050;38.164;2023-02-01T02:53:18;15.35;;;7.25;;
75684;SDS011;64298;46.050;38.164;2023-02-01T02:56:08;12.27;;;5.20;;
75684;SDS011;64298;46.050;38.164;2023-02-01T02:59:14;10.88;;;4.47;;
75684;SDS011;64298;46.050;38.164;2023-02-01T03:02:01;13.13;;;5.22;;
75684;SDS011;64298;46.050;38.164;2023-02-01T03:04:46;10.88;;;4.68;;
75684;SDS011;64298;46.050;38.164;2023-02-01T03:07:45;11.18;;;4.97;;
75684;SDS011;64298;46.050;38.164;2023-02-01T03:10:13;13.13;;;5.93;;
75684;SDS011;64298;46.050;38.164;2023-02-01T03:13:00;13.13;;;5.95;;
75684;SDS011;64298;46.050;38.164;2023-02-01T03:15:37;11.63;;;5.38;;
75684;SDS011;64298;46.050;38.164;2023-02-01T03:21:10;14.23;;;7.63;;
75684;SDS011;64298;46.050;38.164;2023-02-01T03:23:39;11.05;;;4.68;;
75684;SDS011;64298;46.050;38.164;2023-02-01T03:26:10;12.55;;;6.63;;
75684;SDS011;64298;46.050;38.164;2023-02-01T03:29:09;13.02;;;4.90;;
75684;SDS011;64298;46.050;38.164;2023-02-01T03:31:41;15.43;;;5.60;;
75684;SDS011;64298;46.050;38.164;2023-02-01T03:34:07;16.95;;;7.00;;
75684;SDS011;64298;46.050;38.164;2023-02-01T03:36:37;16.13;;;6.25;;
75684;SDS011;64298;46.050;38.164;2023-02-01T03:42:17;15.30;;;6.75;;
75684;SDS011;64298;46.050;38.164;2023-02-01T03:44:51;13.75;;;5.13;;
75684;SDS011;64298;46.050;38.164;2023-02-01T03:49:55;11.63;;;4.22;;
75684;SDS011;64298;46.050;38.164;2023-02-01T03:52:30;15.57;;;5.28;;
75684;SDS011;64298;46.050;38.164;2023-02-01T03:55:18;12.60;;;4.68;;
75684;SDS011;64298;46.050;38.164;2023-02-01T03:58:16;11.98;;;4.40;;
75684;SDS011;64298;46.050;38.164;2023-02-01T04:00:51;12.20;;;5.07;;
75684;SDS011;64298;46.050;38.164;2023-02-01T04:03:22;15.05;;;5.85;;
75684;SDS011;64298;46.050;38.164;2023-02-01T04:05:49;13.73;;;6.25;;
75684;SDS011;64298;46.050;38.164;2023-02-01T04:08:15;15.77;;;5.97;;
75684;SDS011;64298;46.050;38.164;2023-02-01T04:10:41;17.23;;;7.43;;
75684;SDS011;64298;46.050;38.164;2023-02-01T04:13:07;15.07;;;6.13;;
75684;SDS011;64298;46.050;38.164;2023-02-01T04:15:33;14.32;;;5.25;;
75684;SDS011;64298;46.050;38.164;2023-02-01T04:18:00;18.30;;;8.30;;
75684;SDS011;64298;46.050;38.164;2023-02-01T04:20:26;13.73;;;5.03;;
75684;SDS011;64298;46.050;38.164;2023-02-01T04:22:52;16.85;;;5.85;;
75684;SDS011;64298;46.050;38.164;2023-02-01T04:25:18;16.45;;;5.05;;
75684;SDS011;64298;46.050;38.164;2023-02-01T04:27:45;13.63;;;5.85;;
75684;SDS011;64298;46.050;38.164;2023-02-01T04:30:11;18.92;;;8.23;;
75684;SDS011;64298;46.050;38.164;2023-02-01T04:32:38;15.23;;;6.78;;
75684;SDS011;64298;46.050;38.164;2023-02-01T04:35:05;12.77;;;5.05;;
75684;SDS011;64298;46.050;38.164;2023-02-01T04:37:32;13.05;;;6.10;;
75684;SDS011;64298;46.050;38.164;2023-02-01T04:39:58;19.60;;;6.10;;
75684;SDS011;64298;46.050;38.164;2023-02-01T04:42:24;21.75;;;7.53;;
75684;SDS011;64298;46.050;38.164;2023-02-01T04:44:50;16.58;;;5.13;;
75684;SDS011;64298;46.050;38.164;2023-02-01T04:47:16;18.80;;;7.43;;
75684;SDS011;64298;46.050;38.164;2023-02-01T04:49:42;22.38;;;8.70;;
75684;SDS011;64298;46.050;38.164;2023-02-01T04:52:08;15.35;;;5.95;;
75684;SDS011;64298;46.050;38.164;2023-02-01T04:54:34;17.95;;;6.13;;
75684;SDS011;64298;46.050;38.164;2023-02-01T04:57:00;16.17;;;5.78;;
75684;SDS011;64298;46.050;38.164;2023-02-01T04:59:26;18.92;;;7.60;;
75684;SDS011;64298;46.050;38.164;2023-02-01T05:01:52;20.48;;;6.22;;
75684;SDS011;64298;46.050;38.164;2023-02-01T05:04:18;19.67;;;6.22;;
75684;SDS011;64298;46.050;38.164;2023-02-01T05:06:44;17.05;;;5.88;;
75684;SDS011;64298;46.050;38.164;2023-02-01T05:09:10;22.65;;;6.03;;
75684;SDS011;64298;46.050;38.164;2023-02-01T05:11:36;16.25;;;5.80;;
75684;SDS011;64298;46.050;38.164;2023-02-01T05:14:21;18.63;;;8.20;;
75684;SDS011;64298;46.050;38.164;2023-02-01T05:16:47;24.17;;;9.65;;
75684;SDS011;64298;46.050;38.164;2023-02-01T05:19:13;17.02;;;6.97;;
75684;SDS011;64298;46.050;38.164;2023-02-01T05:21:39;16.83;;;6.78;;
75684;SDS011;64298;46.050;38.164;2023-02-01T05:24:05;22.73;;;8.60;;
75684;SDS011;64298;46.050;38.164;2023-02-01T05:26:56;20.48;;;8.00;;
75684;SDS011;64298;46.050;38.164;2023-02-01T05:29:22;15.77;;;6.15;;
75684;SDS011;64298;46.050;38.164;2023-02-01T05:31:48;20.52;;;8.85;;
75684;SDS011;64298;46.050;38.164;2023-02-01T05:34:14;24.30;;;6.57;;
75684;SDS011;64298;46.050;38.164;2023-02-01T05:36:42;20.73;;;7.07;;
75684;SDS011;64298;46.050;38.164;2023-02-01T05:39:08;24.63;;;9.65;;
75684;SDS011;64298;46.050;38.164;2023-02-01T05:41:35;19.13;;;7.50;;
75684;SDS011;64298;46.050;38.164;2023-02-01T05:44:01;24.17;;;7.78;;
75684;SDS011;64298;46.050;38.164;2023-02-01T05:46:28;21.38;;;8.15;;
75684;SDS011;64298;46.050;38.164;2023-02-01T05:48:54;18.33;;;5.88;;
75684;SDS011;64298;46.050;38.164;2023-02-01T05:51:20;20.70;;;6.35;;
75684;SDS011;64298;46.050;38.164;2023-02-01T05:53:46;18.38;;;5.70;;
75684;SDS011;64298;46.050;38.164;2023-02-01T05:56:11;18.25;;;6.60;;
75684;SDS011;64298;46.050;38.164;2023-02-01T05:58:37;17.95;;;5.32;;
75684;SDS011;64298;46.050;38.164;2023-02-01T06:01:03;17.02;;;5.18;;
75684;SDS011;64298;46.050;38.164;2023-02-01T06:03:29;14.98;;;6.65;;
75684;SDS011;64298;46.050;38.164;2023-02-01T06:05:55;15.25;;;4.35;;
75684;SDS011;64298;46.050;38.164;2023-02-01T06:08:21;13.40;;;4.03;;
75684;SDS011;64298;46.050;38.164;2023-02-01T06:10:50;13.18;;;4.20;;
75684;SDS011;64298;46.050;38.164;2023-02-01T06:13:22;13.38;;;4.95;;
75684;SDS011;64298;46.050;38.164;2023-02-01T06:15:48;18.48;;;5.05;;
75684;SDS011;64298;46.050;38.164;2023-02-01T06:18:14;14.23;;;4.72;;
75684;SDS011;64298;46.050;38.164;2023-02-01T06:20:41;21.38;;;5.63;;
75684;SDS011;64298;46.050;38.164;2023-02-01T06:23:07;18.30;;;5.15;;
75684;SDS011;64298;46.050;38.164;2023-02-01T06:25:32;12.68;;;5.00;;
75684;SDS011;64298;46.050;38.164;2023-02-01T06:28:02;12.27;;;3.97;;
75684;SDS011;64298;46.050;38.164;2023-02-01T06:30:31;11.40;;;3.83;;
75684;SDS011;64298;46.050;38.164;2023-02-01T06:32:57;9.93;;;4.35;;
75684;SDS011;64298;46.050;38.164;2023-02-01T06:35:23;9.15;;;3.40;;
75684;SDS011;64298;46.050;38.164;2023-02-01T06:37:49;12.73;;;3.22;;
75684;SDS011;64298;46.050;38.164;2023-02-01T06:40:34;10.93;;;3.80;;
75684;SDS011;64298;46.050;38.164;2023-02-01T06:43:00;12.95;;;4.07;;
75684;SDS011;64298;46.050;38.164;2023-02-01T06:45:26;13.73;;;3.88;;
75684;SDS011;64298;46.050;38.164;2023-02-01T06:48:11;14.70;;;5.25;;
75684;SDS011;64298;46.050;38.164;2023-02-01T06:50:37;19.38;;;5.10;;
75684;SDS011;64298;46.050;38.164;2023-02-01T06:53:02;13.13;;;5.68;;
75684;SDS011;64298;46.050;38.164;2023-02-01T06:55:28;12.50;;;5.18;;
75684;SDS011;64298;46.050;38.164;2023-02-01T06:57:54;10.45;;;3.75;;
75684;SDS011;64298;46.050;38.164;2023-02-01T07:00:21;8.98;;;4.00;;
75684;SDS011;64298;46.050;38.164;2023-02-01T07:02:48;11.52;;;4.10;;
75684;SDS011;64298;46.050;38.164;2023-02-01T07:05:14;12.50;;;4.20;;
75684;SDS011;64298;46.050;38.164;2023-02-01T07:07:41;12.25;;;4.25;;
75684;SDS011;64298;46.050;38.164;2023-02-01T07:10:07;11.82;;;4.25;;
75684;SDS011;64298;46.050;38.164;2023-02-01T07:12:33;11.85;;;5.47;;
75684;SDS011;64298;46.050;38.164;2023-02-01T07:14:59;12.20;;;3.55;;
75684;SDS011;64298;46.050;38.164;2023-02-01T07:17:26;12.23;;;4.55;;
75684;SDS011;64298;46.050;38.164;2023-02-01T07:19:55;12.68;;;4.50;;
75684;SDS011;64298;46.050;38.164;2023-02-01T07:22:22;12.05;;;4.43;;
75684;SDS011;64298;46.050;38.164;2023-02-01T07:24:48;14.65;;;5.90;;
75684;SDS011;64298;46.050;38.164;2023-02-01T07:27:14;10.65;;;4.88;;
75684;SDS011;64298;46.050;38.164;2023-02-01T07:29:40;15.27;;;7.00;;
75684;SDS011;64298;46.050;38.164;2023-02-01T07:32:06;9.77;;;4.00;;
75684;SDS011;64298;46.050;38.164;2023-02-01T07:34:32;14.80;;;6.57;;
75684;SDS011;64298;46.050;38.164;2023-02-01T07:36:59;13.98;;;5.53;;
75684;SDS011;64298;46.050;38.164;2023-02-01T07:39:25;14.95;;;6.47;;
75684;SDS011;64298;46.050;38.164;2023-02-01T07:44:19;13.63;;;4.90;;
75684;SDS011;64298;46.050;38.164;2023-02-01T07:46:48;10.45;;;3.33;;
75684;SDS011;64298;46.050;38.164;2023-02-01T07:49:14;13.38;;;5.25;;
75684;SDS011;64298;46.050;38.164;2023-02-01T07:51:40;14.02;;;5.97;;
75684;SDS011;64298;46.050;38.164;2023-02-01T07:54:06;16.40;;;5.43;;
75684;SDS011;64298;46.050;38.164;2023-02-01T07:56:32;13.95;;;4.57;;
75684;SDS011;64298;46.050;38.164;2023-02-01T07:58:58;13.73;;;4.82;;
75684;SDS011;64298;46.050;38.164;2023-02-01T08:01:26;12.95;;;5.20;;
75684;SDS011;64298;46.050;38.164;2023-02-01T08:06:21;15.10;;;4.88;;
75684;SDS011;64298;46.050;38.164;2023-02-01T08:08:48;12.18;;;4.43;;
75684;SDS011;64298;46.050;38.164;2023-02-01T08:11:15;15.15;;;5.03;;
75684;SDS011;64298;46.050;38.164;2023-02-01T08:13:42;17.42;;;8.65;;
75684;SDS011;64298;46.050;38.164;2023-02-01T08:16:09;12.57;;;4.63;;
75684;SDS011;64298;46.050;38.164;2023-02-01T08:18:37;13.70;;;6.57;;
75684;SDS011;64298;46.050;38.164;2023-02-01T08:21:04;15.70;;;5.65;;
75684;SDS011;64298;46.050;38.164;2023-02-01T08:26:21;17.73;;;7.18;;
75684;SDS011;64298;46.050;38.164;2023-02-01T08:29:08;14.40;;;5.07;;
75684;SDS011;64298;46.050;38.164;2023-02-01T08:31:36;15.68;;;6.07;;
75684;SDS011;64298;46.050;38.164;2023-02-01T08:34:05;15.90;;;5.97;;
75684;SDS011;64298;46.050;38.164;2023-02-01T08:36:33;14.20;;;5.65;;
75684;SDS011;64298;46.050;38.164;2023-02-01T08:39:00;15.98;;;7.43;;
75684;SDS011;64298;46.050;38.164;2023-02-01T08:41:28;17.88;;;7.20;;
75684;SDS011;64298;46.050;38.164;2023-02-01T08:43:55;19.02;;;6.88;;
75684;SDS011;64298;46.050;38.164;2023-02-01T08:46:22;16.50;;;5.00;;
75684;SDS011;64298;46.050;38.164;2023-02-01T08:48:49;17.75;;;5.32;;
75684;SDS011;64298;46.050;38.164;2023-02-01T08:51:16;18.10;;;5.97;;
75684;SDS011;64298;46.050;38.164;2023-02-01T08:53:43;13.05;;;5.30;;
75684;SDS011;64298;46.050;38.164;2023-02-01T08:56:10;12.35;;;4.80;;
75684;SDS011;64298;46.050;38.164;2023-02-01T09:01:04;13.07;;;6.20;;
75684;SDS011;64298;46.050;38.164;2023-02-01T09:03:31;14.32;;;5.20;;
75684;SDS011;64298;46.050;38.164;2023-02-01T09:06:04;15.38;;;5.78;;
75684;SDS011;64298;46.050;38.164;2023-02-01T09:08:32;14.98;;;7.32;;
75684;SDS011;64298;46.050;38.164;2023-02-01T09:11:10;16.20;;;6.70;;
75684;SDS011;64298;46.050;38.164;2023-02-01T09:13:38;14.40;;;5.35;;
75684;SDS011;64298;46.050;38.164;2023-02-01T09:16:04;11.80;;;5.03;;
75684;SDS011;64298;46.050;38.164;2023-02-01T09:18:30;10.77;;;4.47;;
75684;SDS011;64298;46.050;38.164;2023-02-01T09:20:56;10.85;;;4.28;;
75684;SDS011;64298;46.050;38.164;2023-02-01T09:23:40;15.15;;;5.05;;
75684;SDS011;64298;46.050;38.164;2023-02-01T09:26:06;12.65;;;5.00;;
75684;SDS011;64298;46.050;38.164;2023-02-01T09:28:33;12.43;;;4.65;;
75684;SDS011;64298;46.050;38.164;2023-02-01T09:31:18;18.38;;;5.38;;
75684;SDS011;64298;46.050;38.164;2023-02-01T09:33:44;13.50;;;4.78;;
75684;SDS011;64298;46.050;38.164;2023-02-01T09:36:10;17.67;;;6.18;;
75684;SDS011;64298;46.050;38.164;2023-02-01T09:38:36;16.33;;;5.68;;
75684;SDS011;64298;46.050;38.164;2023-02-01T09:41:06;16.58;;;5.50;;
75684;SDS011;64298;46.050;38.164;2023-02-01T09:46:22;10.95;;;4.47;;
75684;SDS011;64298;46.050;38.164;2023-02-01T09:49:13;13.38;;;4.55;;
75684;SDS011;64298;46.050;38.164;2023-02-01T09:51:44;15.18;;;5.03;;
75684;SDS011;64298;46.050;38.164;2023-02-01T10:02:09;13.73;;;5.28;;
75684;SDS011;64298;46.050;38.164;2023-02-01T10:04:47;14.10;;;5.97;;
75684;SDS011;64298;46.050;38.164;2023-02-01T10:15:35;24.60;;;8.88;;
75684;SDS011;64298;46.050;38.164;2023-02-01T10:21:26;10.68;;;4.57;;
75684;SDS011;64298;46.050;38.164;2023-02-01T10:24:24;10.60;;;4.15;;
75684;SDS011;64298;46.050;38.164;2023-02-01T10:27:19;13.98;;;5.68;;
75684;SDS011;64298;46.050;38.164;2023-02-01T10:29:48;15.95;;;5.70;;
75684;SDS011;64298;46.050;38.164;2023-02-01T10:32:40;14.20;;;5.43;;
75684;SDS011;64298;46.050;38.164;2023-02-01T10:35:14;11.85;;;3.90;;
75684;SDS011;64298;46.050;38.164;2023-02-01T10:37:43;13.63;;;4.35;;
75684;SDS011;64298;46.050;38.164;2023-02-01T10:42:57;12.35;;;4.78;;
75684;SDS011;64298;46.050;38.164;2023-02-01T10:45:28;12.88;;;5.07;;
75684;SDS011;64298;46.050;38.164;2023-02-01T10:47:56;10.55;;;4.95;;
75684;SDS011;64298;46.050;38.164;2023-02-01T10:50:29;11.95;;;3.80;;
75684;SDS011;64298;46.050;38.164;2023-02-01T10:53:24;7.72;;;3.33;;
75684;SDS011;64298;46.050;38.164;2023-02-01T10:55:57;11.70;;;4.25;;
75684;SDS011;64298;46.050;38.164;2023-02-01T10:58:31;11.18;;;4.50;;
75684;SDS011;64298;46.050;38.164;2023-02-01T11:03:33;8.43;;;3.65;;
75684;SDS011;64298;46.050;38.164;2023-02-01T11:06:00;9.15;;;4.53;;
75684;SDS011;64298;46.050;38.164;2023-02-01T11:08:28;10.15;;;3.70;;
75684;SDS011;64298;46.050;38.164;2023-02-01T11:10:59;11.65;;;4.28;;
75684;SDS011;64298;46.050;38.164;2023-02-01T11:13:28;12.18;;;4.30;;
75684;SDS011;64298;46.050;38.164;2023-02-01T11:15:57;8.93;;;4.00;;
75684;SDS011;64298;46.050;38.164;2023-02-01T11:18:41;11.70;;;4.22;;
75684;SDS011;64298;46.050;38.164;2023-02-01T11:21:08;13.63;;;4.70;;
75684;SDS011;64298;46.050;38.164;2023-02-01T11:23:39;10.25;;;4.20;;
75684;SDS011;64298;46.050;38.164;2023-02-01T11:26:19;11.45;;;4.30;;
75684;SDS011;64298;46.050;38.164;2023-02-01T11:31:25;12.15;;;4.55;;
75684;SDS011;64298;46.050;38.164;2023-02-01T11:33:54;11.55;;;3.35;;
75684;SDS011;64298;46.050;38.164;2023-02-01T11:36:24;10.23;;;4.38;;
75684;SDS011;64298;46.050;38.164;2023-02-01T11:38:54;13.70;;;4.65;;
75684;SDS011;64298;46.050;38.164;2023-02-01T11:44:33;12.02;;;5.97;;
75684;SDS011;64298;46.050;38.164;2023-02-01T11:50:00;9.10;;;3.95;;
75684;SDS011;64298;46.050;38.164;2023-02-01T11:52:43;11.73;;;4.65;;
75684;SDS011;64298;46.050;38.164;2023-02-01T11:58:32;11.18;;;5.70;;
75684;SDS011;64298;46.050;38.164;2023-02-01T12:04:08;10.10;;;4.32;;
75684;SDS011;64298;46.050;38.164;2023-02-01T12:06:47;9.57;;;4.18;;
75684;SDS011;64298;46.050;38.164;2023-02-01T12:23:02;10.15;;;4.80;;
75684;SDS011;64298;46.050;38.164;2023-02-01T12:42:40;10.07;;;4.20;;
75684;SDS011;64298;46.050;38.164;2023-02-01T12:45:21;12.00;;;4.05;;
75684;SDS011;64298;46.050;38.164;2023-02-01T12:47:57;11.50;;;4.32;;
75684;SDS011;64298;46.050;38.164;2023-02-01T12:50:52;14.65;;;5.97;;
75684;SDS011;64298;46.050;38.164;2023-02-01T12:53:30;11.05;;;4.90;;
75684;SDS011;64298;46.050;38.164;2023-02-01T12:56:18;10.20;;;3.45;;
75684;SDS011;64298;46.050;38.164;2023-02-01T12:59:02;13.38;;;4.63;;
75684;SDS011;64298;46.050;38.164;2023-02-01T13:07:30;11.40;;;4.93;;
75684;SDS011;64298;46.050;38.164;2023-02-01T13:10:12;10.18;;;4.85;;
75684;SDS011;64298;46.050;38.164;2023-02-01T13:15:40;8.23;;;4.00;;
75684;SDS011;64298;46.050;38.164;2023-02-01T13:18:15;6.72;;;2.65;;
75684;SDS011;64298;46.050;38.164;2023-02-01T13:20:53;7.57;;;3.13;;
75684;SDS011;64298;46.050;38.164;2023-02-01T13:23:46;8.60;;;3.90;;
75684;SDS011;64298;46.050;38.164;2023-02-01T13:28:44;5.25;;;2.15;;
75684;SDS011;64298;46.050;38.164;2023-02-01T13:42:21;6.80;;;2.92;;
75684;SDS011;64298;46.050;38.164;2023-02-01T13:45:00;7.32;;;3.55;;
75684;SDS011;64298;46.050;38.164;2023-02-01T13:47:39;7.70;;;3.35;;
75684;SDS011;64298;46.050;38.164;2023-02-01T13:52:50;7.22;;;3.35;;
75684;SDS011;64298;46.050;38.164;2023-02-01T14:00:45;11.23;;;5.22;;
75684;SDS011;64298;46.050;38.164;2023-02-01T14:08:13;9.85;;;4.57;;
75684;SDS011;64298;46.050;38.164;2023-02-01T14:13:34;11.25;;;4.88;;
75684;SDS011;64298;46.050;38.164;2023-02-01T14:24:00;10.43;;;3.70;;
75684;SDS011;64298;46.050;38.164;2023-02-01T14:39:50;13.77;;;5.60;;
75684;SDS011;64298;46.050;38.164;2023-02-01T14:42:22;11.15;;;7.07;;
75684;SDS011;64298;46.050;38.164;2023-02-01T14:47:44;11.27;;;5.30;;
75684;SDS011;64298;46.050;38.164;2023-02-01T14:55:37;12.98;;;5.50;;
75684;SDS011;64298;46.050;38.164;2023-02-01T14:58:14;11.38;;;5.10;;
75684;SDS011;64298;46.050;38.164;2023-02-01T15:00:54;13.75;;;5.18;;
75684;SDS011;64298;46.050;38.164;2023-02-01T15:03:33;11.63;;;4.55;;
75684;SDS011;64298;46.050;38.164;2023-02-01T15:06:30;7.75;;;3.08;;
75684;SDS011;64298;46.050;38.164;2023-02-01T15:09:04;14.45;;;6.07;;
75684;SDS011;64298;46.050;38.164;2023-02-01T15:11:30;13.95;;;5.25;;
75684;SDS011;64298;46.050;38.164;2023-02-01T15:13:56;15.98;;;6.88;;
75684;SDS011;64298;46.050;38.164;2023-02-01T15:16:23;17.80;;;6.95;;
75684;SDS011;64298;46.050;38.164;2023-02-01T15:19:06;15.85;;;6.53;;
75684;SDS011;64298;46.050;38.164;2023-02-01T15:21:41;19.30;;;8.88;;
75684;SDS011;64298;46.050;38.164;2023-02-01T15:24:13;17.08;;;6.65;;
75684;SDS011;64298;46.050;38.164;2023-02-01T15:26:44;16.67;;;6.68;;
75684;SDS011;64298;46.050;38.164;2023-02-01T15:29:10;20.20;;;7.53;;
75684;SDS011;64298;46.050;38.164;2023-02-01T15:31:38;17.90;;;6.85;;
75684;SDS011;64298;46.050;38.164;2023-02-01T15:34:07;24.52;;;8.27;;
75684;SDS011;64298;46.050;38.164;2023-02-01T15:36:33;18.77;;;7.80;;
75684;SDS011;64298;46.050;38.164;2023-02-01T15:39:20;20.27;;;8.93;;
75684;SDS011;64298;46.050;38.164;2023-02-01T15:41:58;21.70;;;8.50;;
75684;SDS011;64298;46.050;38.164;2023-02-01T15:44:31;24.50;;;8.30;;
75684;SDS011;64298;46.050;38.164;2023-02-01T15:46:59;24.80;;;10.02;;
75684;SDS011;64298;46.050;38.164;2023-02-01T15:49:32;17.13;;;7.38;;
75684;SDS011;64298;46.050;38.164;2023-02-01T15:52:03;17.15;;;7.40;;
75684;SDS011;64298;46.050;38.164;2023-02-01T15:54:41;20.70;;;9.00;;
75684;SDS011;64298;46.050;38.164;2023-02-01T15:57:11;21.50;;;8.27;;
75684;SDS011;64298;46.050;38.164;2023-02-01T16:00:06;20.45;;;8.23;;
75684;SDS011;64298;46.050;38.164;2023-02-01T16:02:59;10.98;;;4.57;;
75684;SDS011;64298;46.050;38.164;2023-02-01T16:05:35;18.75;;;7.60;;
75684;SDS011;64298;46.050;38.164;2023-02-01T16:10:29;19.95;;;7.45;;
75684;SDS011;64298;46.050;38.164;2023-02-01T16:12:56;19.10;;;7.80;;
75684;SDS011;64298;46.050;38.164;2023-02-01T16:15:26;20.83;;;8.82;;
75684;SDS011;64298;46.050;38.164;2023-02-01T16:17:54;18.33;;;7.03;;
75684;SDS011;64298;46.050;38.164;2023-02-01T16:20:21;18.52;;;7.47;;
75684;SDS011;64298;46.050;38.164;2023-02-01T16:22:47;17.90;;;7.47;;
75684;SDS011;64298;46.050;38.164;2023-02-01T16:25:13;20.95;;;8.27;;
75684;SDS011;64298;46.050;38.164;2023-02-01T16:27:39;22.70;;;8.82;;
75684;SDS011;64298;46.050;38.164;2023-02-01T16:30:05;22.63;;;8.93;;
75684;SDS011;64298;46.050;38.164;2023-02-01T16:32:35;20.73;;;8.30;;
75684;SDS011;64298;46.050;38.164;2023-02-01T16:37:41;19.15;;;7.70;;
75684;SDS011;64298;46.050;38.164;2023-02-01T16:40:12;22.73;;;7.15;;
75684;SDS011;64298;46.050;38.164;2023-02-01T16:42:42;17.77;;;8.27;;
75684;SDS011;64298;46.050;38.164;2023-02-01T16:45:08;16.80;;;6.82;;
75684;SDS011;64298;46.050;38.164;2023-02-01T16:47:36;21.45;;;9.57;;
75684;SDS011;64298;46.050;38.164;2023-02-01T16:50:03;15.52;;;6.78;;
75684;SDS011;64298;46.050;38.164;2023-02-01T16:52:30;12.77;;;5.80;;
75684;SDS011;64298;46.050;38.164;2023-02-01T16:54:56;19.02;;;7.47;;
75684;SDS011;64298;46.050;38.164;2023-02-01T16:57:22;19.30;;;6.90;;
75684;SDS011;64298;46.050;38.164;2023-02-01T16:59:49;17.35;;;7.65;;
75684;SDS011;64298;46.050;38.164;2023-02-01T17:02:16;17.15;;;6.20;;
75684;SDS011;64298;46.050;38.164;2023-02-01T17:04:48;14.63;;;5.88;;
75684;SDS011;64298;46.050;38.164;2023-02-01T17:07:15;12.63;;;5.30;;
75684;SDS011;64298;46.050;38.164;2023-02-01T17:10:02;17.13;;;5.85;;
75684;SDS011;64298;46.050;38.164;2023-02-01T17:12:30;12.00;;;4.30;;
75684;SDS011;64298;46.050;38.164;2023-02-01T17:14:58;12.00;;;4.88;;
75684;SDS011;64298;46.050;38.164;2023-02-01T17:17:43;8.50;;;3.55;;
75684;SDS011;64298;46.050;38.164;2023-02-01T17:20:17;12.20;;;4.40;;
75684;SDS011;64298;46.050;38.164;2023-02-01T17:22:46;7.60;;;3.15;;
75684;SDS011;64298;46.050;38.164;2023-02-01T17:25:16;12.13;;;7.03;;
75684;SDS011;64298;46.050;38.164;2023-02-01T17:27:44;10.55;;;4.65;;
75684;SDS011;64298;46.050;38.164;2023-02-01T17:30:11;11.45;;;4.20;;
75684;SDS011;64298;46.050;38.164;2023-02-01T17:32:55;9.05;;;3.92;;
75684;SDS011;64298;46.050;38.164;2023-02-01T17:35:23;10.77;;;4.25;;
75684;SDS011;64298;46.050;38.164;2023-02-01T17:37:50;12.07;;;4.72;;
75684;SDS011;64298;46.050;38.164;2023-02-01T17:40:17;10.80;;;5.10;;
75684;SDS011;64298;46.050;38.164;2023-02-01T17:42:43;11.48;;;4.05;;
75684;SDS011;64298;46.050;38.164;2023-02-01T17:45:20;10.38;;;4.38;;
75684;SDS011;64298;46.050;38.164;2023-02-01T17:48:06;12.35;;;4.47;;
75684;SDS011;64298;46.050;38.164;2023-02-01T17:50:34;9.07;;;4.15;;
75684;SDS011;64298;46.050;38.164;2023-02-01T17:53:02;11.15;;;4.30;;
75684;SDS011;64298;46.050;38.164;2023-02-01T17:55:32;20.05;;;5.75;;
75684;SDS011;64298;46.050;38.164;2023-02-01T17:58:00;9.38;;;4.22;;
75684;SDS011;64298;46.050;38.164;2023-02-01T18:00:26;10.95;;;4.60;;